createdAt,value
2018-01-12T00:00:51.918Z,68.10
2018-01-12T00:03:24.348Z,67.10
2018-01-12T00:05:55.802Z,67.19
2018-01-12T00:08:27.395Z,66.89
2018-01-12T00:10:59.221Z,66.00
2018-01-12T00:13:30.801Z,66.67
2018-01-12T00:16:02.376Z,65.63
2018-01-12T00:18:34.329Z,65.74
2018-01-12T00:21:05.974Z,65.14
2018-01-12T00:23:37.982Z,65.52
2018-01-12T00:26:09.499Z,66.03
2018-01-12T00:28:40.791Z,66.36
2018-01-12T00:31:12.982Z,66.37
2018-01-12T00:33:45.335Z,65.78
2018-01-12T00:37:20.581Z,65.58
2018-01-12T00:39:52.777Z,64.53
2018-01-12T00:42:25.587Z,64.12
2018-01-12T00:45:00.268Z,63.92
2018-01-12T00:47:32.519Z,63.02
2018-01-12T00:50:05.308Z,62.46
2018-01-12T00:52:37.191Z,63.58
2018-01-12T00:55:10.710Z,62.11
2018-01-12T00:57:43.364Z,61.40
2018-01-12T01:00:15.562Z,61.17
2018-01-12T01:02:48.201Z,61.49
2018-01-12T01:05:20.081Z,61.15
2018-01-12T01:07:51.554Z,62.03
2018-01-12T01:10:25.212Z,61.61
2018-01-12T01:12:56.778Z,61.99
2018-01-12T01:15:28.850Z,62.66
2018-01-12T01:18:00.195Z,64.92
2018-01-12T01:20:32.002Z,64.26
2018-01-12T01:23:03.358Z,64.73
2018-01-12T01:25:34.667Z,66.00
2018-01-12T01:28:06.684Z,64.48
2018-01-12T01:30:38.240Z,64.07
2018-01-12T01:33:09.881Z,66.93
2018-01-12T01:35:42.658Z,68.19
2018-01-12T01:38:15.283Z,69.02
2018-01-12T01:40:47.385Z,70.63
2018-01-12T01:43:19.578Z,70.84
2018-01-12T01:45:51.179Z,69.95
2018-01-12T01:48:31.837Z,69.07
2018-01-12T01:51:04.061Z,67.54
2018-01-12T01:53:36.448Z,67.97
2018-01-12T01:56:08.319Z,67.47
2018-01-12T01:58:40.039Z,67.97
2018-01-12T02:01:13.392Z,67.44
2018-01-12T02:03:45.127Z,68.02
2018-01-12T02:06:17.218Z,67.53
2018-01-12T02:08:49.676Z,67.74
2018-01-12T02:11:21.379Z,67.83
2018-01-12T02:13:52.883Z,68.67
2018-01-12T02:16:24.447Z,69.77
2018-01-12T02:18:56.214Z,69.01
2018-01-12T02:21:28.589Z,68.80
2018-01-12T02:24:00.486Z,67.49
2018-01-12T02:26:32.241Z,66.18
2018-01-12T02:29:04.003Z,65.88
2018-01-12T02:31:36.324Z,64.91
2018-01-12T02:34:08.075Z,64.80
2018-01-12T02:36:39.966Z,64.42
2018-01-12T02:39:11.272Z,64.52
2018-01-12T02:41:42.642Z,64.36
2018-01-12T02:44:15.377Z,64.77
2018-01-12T02:46:46.996Z,65.86
2018-01-12T02:49:19.263Z,66.84
2018-01-12T02:51:52.593Z,68.83
2018-01-12T02:54:24.447Z,69.04
2018-01-12T02:56:57.316Z,70.02
2018-01-12T02:59:30.659Z,69.97
2018-01-12T03:02:02.714Z,68.75
2018-01-12T03:04:34.040Z,67.54
2018-01-12T03:07:06.127Z,66.10
2018-01-12T03:09:37.893Z,65.76
2018-01-12T03:12:09.989Z,64.90
2018-01-12T03:14:41.364Z,65.65
2018-01-12T03:17:13.016Z,65.34
2018-01-12T03:19:44.862Z,65.21
2018-01-12T03:22:16.755Z,64.47
2018-01-12T03:24:48.459Z,65.84
2018-01-12T03:27:21.073Z,66.35
2018-01-12T03:29:52.772Z,68.26
2018-01-12T03:32:24.413Z,69.00
2018-01-12T03:34:56.231Z,68.28
2018-01-12T03:37:28.083Z,69.28
2018-01-12T03:40:00.257Z,69.22
2018-01-12T03:42:32.044Z,69.09
2018-01-12T03:45:04.244Z,68.54
2018-01-12T03:47:35.991Z,68.73
2018-01-12T03:50:07.355Z,68.27
2018-01-12T03:52:38.718Z,67.67
2018-01-12T03:55:12.141Z,67.89
2018-01-12T03:57:43.866Z,67.50
2018-01-12T04:00:16.237Z,67.64
2018-01-12T04:02:48.377Z,67.36
2018-01-12T04:05:19.924Z,68.32
2018-01-12T04:07:51.349Z,68.72
2018-01-12T04:10:29.108Z,70.01
2018-01-12T04:13:00.935Z,69.43
2018-01-12T04:15:32.332Z,70.27
2018-01-12T04:18:04.735Z,70.53
2018-01-12T04:20:39.900Z,70.92
2018-01-12T04:23:11.578Z,70.20
2018-01-12T04:25:43.728Z,69.76
2018-01-12T04:28:15.135Z,69.16
2018-01-12T04:30:46.894Z,69.43
2018-01-12T04:33:19.047Z,70.83
2018-01-12T04:35:50.412Z,71.79
2018-01-12T04:38:21.622Z,71.45
2018-01-12T04:40:53.273Z,69.36
2018-01-12T04:43:24.621Z,68.84
2018-01-12T04:45:56.096Z,69.19
2018-01-12T04:48:28.466Z,68.41
2018-01-12T04:50:59.897Z,66.87
2018-01-12T04:53:31.493Z,67.55
2018-01-12T04:56:03.688Z,67.47
2018-01-12T04:58:35.374Z,67.29
2018-01-12T05:01:06.887Z,68.38
2018-01-12T05:03:39.130Z,68.68
2018-01-12T05:06:11.487Z,68.64
2018-01-12T05:08:43.326Z,68.76
2018-01-12T05:11:14.616Z,68.36
2018-01-12T05:13:45.819Z,68.20
2018-01-12T05:16:18.043Z,67.83
2018-01-12T05:18:50.056Z,67.36
2018-01-12T05:21:21.850Z,67.67
2018-01-12T05:23:53.208Z,69.58
2018-01-12T05:26:24.552Z,70.66
2018-01-12T05:28:56.230Z,70.91
2018-01-12T05:31:27.896Z,69.95
2018-01-12T05:33:59.150Z,69.19
2018-01-12T05:36:31.379Z,68.74
2018-01-12T05:39:03.403Z,69.75
2018-01-12T05:41:34.668Z,70.45
2018-01-12T05:44:07.009Z,69.86
2018-01-12T05:46:39.781Z,69.80
2018-01-12T05:49:13.383Z,69.31
2018-01-12T05:51:49.444Z,70.06
2018-01-12T05:54:22.320Z,70.43
2018-01-12T05:56:54.887Z,70.65
2018-01-12T05:59:27.830Z,71.13
2018-01-12T06:08:32.058Z,70.15
2018-01-12T06:11:03.794Z,70.36
2018-01-12T06:13:35.227Z,69.85
2018-01-12T06:16:08.125Z,71.25
2018-01-12T06:18:40.027Z,72.62
2018-01-12T06:21:12.400Z,73.89
2018-01-12T06:23:44.939Z,73.09
2018-01-12T06:26:17.210Z,71.88
2018-01-12T06:28:50.009Z,70.07
2018-01-12T06:31:21.784Z,68.59
2018-01-12T06:33:54.697Z,68.69
2018-01-12T06:36:29.517Z,67.64
2018-01-12T06:39:01.139Z,68.03
2018-01-12T06:41:32.741Z,67.97
2018-01-12T06:44:04.655Z,67.87
2018-01-12T06:46:35.934Z,68.71
2018-01-12T06:49:09.351Z,68.62
2018-01-12T06:51:40.882Z,68.07
2018-01-12T06:54:23.044Z,66.94
2018-01-12T06:56:54.876Z,68.73
2018-01-12T06:59:30.270Z,69.19
2018-01-12T07:02:02.231Z,68.19
2018-01-12T07:04:33.681Z,66.81
2018-01-12T07:07:05.617Z,66.30
2018-01-12T07:09:37.705Z,66.87
2018-01-12T07:12:10.332Z,68.50
2018-01-12T07:14:50.399Z,67.49
2018-01-12T07:17:23.693Z,67.86
2018-01-12T07:19:56.399Z,68.01
2018-01-12T07:22:36.993Z,67.00
2018-01-12T07:25:08.917Z,67.34
2018-01-12T07:27:42.743Z,65.81
2018-01-12T07:30:15.791Z,65.46
2018-01-12T07:32:47.380Z,65.78
2018-01-12T07:35:20.432Z,65.98
2018-01-12T07:37:53.105Z,65.22
2018-01-12T07:40:31.827Z,66.06
2018-01-12T07:43:03.653Z,64.45
2018-01-12T07:45:35.638Z,65.11
2018-01-12T07:48:07.574Z,64.84
2018-01-12T07:50:38.861Z,64.61
2018-01-12T07:53:14.190Z,64.70
2018-01-12T07:55:47.727Z,65.40
2018-01-12T07:58:20.232Z,64.96
2018-01-12T08:00:57.276Z,64.72
2018-01-12T08:03:28.632Z,64.40
2018-01-12T08:06:00.903Z,65.21
2018-01-12T08:08:32.572Z,64.75
2018-01-12T08:11:05.632Z,65.57
2018-01-12T08:13:37.188Z,65.57
2018-01-12T08:16:08.580Z,65.61
2018-01-12T08:18:40.152Z,66.68
2018-01-12T08:21:12.444Z,66.52
2018-01-12T08:23:44.416Z,65.59
2018-01-12T08:26:17.057Z,65.89
2018-01-12T08:28:49.913Z,66.87
2018-01-12T08:31:22.003Z,67.10
2018-01-12T08:33:53.680Z,66.72
2018-01-12T08:36:25.161Z,65.80
2018-01-12T08:38:56.732Z,66.36
2018-01-12T08:41:28.050Z,66.35
2018-01-12T08:44:03.793Z,65.66
2018-01-12T08:46:35.420Z,65.35
2018-01-12T08:49:08.409Z,66.28
2018-01-12T08:51:40.455Z,67.04
2018-01-12T08:54:11.782Z,68.53
2018-01-12T08:56:44.271Z,67.41
2018-01-12T08:59:16.960Z,65.87
2018-01-12T09:01:49.887Z,66.28
2018-01-12T09:04:22.343Z,65.75
2018-01-12T09:06:57.255Z,66.83
2018-01-12T09:09:30.416Z,67.60
2018-01-12T09:12:01.882Z,68.28
2018-01-12T09:14:42.080Z,69.56
2018-01-12T09:17:14.120Z,69.64
2018-01-12T09:19:50.952Z,68.83
2018-01-12T09:22:30.622Z,69.76
2018-01-12T09:25:06.592Z,67.99
2018-01-12T09:27:39.256Z,66.45
2018-01-12T09:30:13.412Z,66.83
2018-01-12T09:32:46.286Z,66.52
2018-01-12T09:35:17.439Z,65.65
2018-01-12T09:37:49.059Z,64.96
2018-01-12T09:40:23.082Z,64.60
2018-01-12T09:42:54.209Z,64.71
2018-01-12T09:45:26.739Z,63.50
2018-01-12T09:48:07.020Z,63.57
2018-01-12T09:50:38.889Z,64.92
2018-01-12T09:53:12.002Z,67.01
2018-01-12T09:55:44.101Z,67.66
2018-01-12T09:58:15.843Z,67.32
2018-01-12T10:00:50.524Z,65.23
2018-01-12T10:03:23.448Z,66.84
2018-01-12T10:05:55.748Z,66.30
2018-01-12T10:08:28.501Z,65.60
2018-01-12T10:10:59.785Z,65.44
2018-01-12T10:13:32.098Z,65.92
2018-01-12T10:16:03.357Z,65.21
2018-01-12T10:18:38.542Z,63.83
2018-01-12T10:21:12.466Z,63.89
2018-01-12T10:23:43.953Z,63.90
2018-01-12T10:26:16.087Z,63.38
2018-01-12T10:28:57.901Z,63.41
2018-01-12T10:31:36.316Z,63.16
2018-01-12T10:34:10.649Z,62.48
2018-01-12T10:36:48.400Z,62.85
2018-01-12T10:39:27.632Z,63.07
2018-01-12T10:42:06.373Z,63.31
2018-01-12T10:44:37.761Z,63.32
2018-01-12T10:47:19.295Z,62.91
2018-01-12T10:49:59.988Z,61.75
2018-01-12T10:52:35.181Z,61.29
2018-01-12T10:55:08.669Z,61.18
2018-01-12T10:57:40.141Z,61.25
2018-01-12T11:00:22.185Z,60.63
2018-01-12T11:02:55.919Z,60.76
2018-01-12T11:05:27.694Z,60.76
2018-01-12T11:07:59.194Z,61.89
2018-01-12T11:10:30.843Z,60.92
2018-01-12T11:13:02.959Z,60.51
2018-01-12T11:15:36.529Z,61.95
2018-01-12T11:18:10.060Z,62.20
2018-01-12T11:20:43.948Z,62.44
2018-01-12T11:23:16.419Z,61.63
2018-01-12T11:25:49.437Z,62.03
2018-01-12T11:28:22.688Z,62.54
2018-01-12T11:30:54.943Z,62.39
2018-01-12T11:33:26.171Z,62.76
2018-01-12T11:35:57.915Z,62.83
2018-01-12T11:38:29.176Z,62.11
2018-01-12T11:41:00.398Z,61.18
2018-01-12T11:43:32.016Z,61.04
2018-01-12T11:46:03.141Z,61.06
2018-01-12T11:48:34.416Z,61.13
2018-01-12T11:51:06.235Z,62.01
2018-01-12T11:53:38.002Z,62.60
2018-01-12T11:56:09.855Z,61.95
2018-01-12T11:58:42.372Z,61.83
2018-01-12T12:01:17.105Z,62.35
2018-01-12T12:03:49.400Z,61.73
2018-01-12T12:06:21.952Z,62.92
2018-01-12T12:08:54.793Z,63.02
2018-01-12T12:11:27.874Z,63.59
2018-01-12T12:14:00.262Z,62.94
2018-01-12T12:16:34.463Z,63.28
2018-01-12T12:19:07.246Z,64.80
2018-01-12T12:21:40.509Z,65.31
2018-01-12T12:24:12.903Z,65.20
2018-01-12T12:26:43.951Z,65.31
2018-01-12T12:29:18.090Z,66.63
2018-01-12T12:31:57.492Z,65.94
2018-01-12T12:34:28.896Z,64.78
2018-01-12T12:37:08.216Z,65.91
2018-01-12T12:39:41.324Z,66.19
2018-01-12T12:42:12.915Z,65.91
2018-01-12T12:44:45.310Z,65.97
2018-01-12T12:47:17.500Z,66.80
2018-01-12T12:49:50.140Z,67.95
2018-01-12T12:52:23.382Z,67.78
2018-01-12T12:54:54.620Z,67.16
2018-01-12T12:57:27.108Z,66.83
2018-01-12T12:59:58.461Z,68.24
2018-01-12T13:02:31.275Z,68.57
2018-01-12T13:05:04.891Z,67.59
2018-01-12T13:07:36.212Z,67.22
2018-01-12T13:10:11.379Z,65.57
2018-01-12T13:12:43.184Z,65.61
2018-01-12T13:15:18.410Z,65.77
2018-01-12T13:17:52.798Z,65.91
2018-01-12T13:20:25.681Z,66.11
2018-01-12T13:22:56.840Z,66.44
2018-01-12T13:25:28.580Z,65.24
2018-01-12T13:28:00.899Z,65.28
2018-01-12T13:30:32.200Z,66.88
2018-01-12T13:33:05.621Z,66.79
2018-01-12T13:35:36.795Z,65.10
2018-01-12T13:38:08.184Z,64.33
2018-01-12T13:40:41.645Z,62.54
2018-01-12T13:43:13.400Z,62.56
2018-01-12T13:45:44.940Z,64.38
2018-01-12T13:48:16.152Z,64.03
2018-01-12T13:50:51.202Z,64.70
2018-01-12T13:53:23.116Z,64.55
2018-01-12T13:55:56.431Z,66.22
2018-01-12T13:58:29.588Z,65.59
2018-01-12T14:01:01.728Z,65.52
2018-01-12T14:03:33.691Z,64.82
2018-01-12T14:06:07.341Z,65.01
2018-01-12T14:08:40.537Z,65.12
2018-01-12T14:11:13.993Z,65.47
2018-01-12T14:13:46.723Z,66.15
2018-01-12T14:16:22.083Z,67.21
2018-01-12T14:18:56.698Z,67.19
2018-01-12T14:21:31.399Z,65.91
2018-01-12T14:24:09.026Z,66.24
2018-01-12T14:26:41.923Z,67.86
2018-01-12T14:29:22.102Z,68.38
2018-01-12T14:31:54.564Z,69.26
2018-01-12T14:34:29.044Z,70.54
2018-01-12T14:37:02.420Z,70.24
2018-01-12T14:39:34.712Z,68.87
2018-01-12T14:42:07.549Z,69.20
2018-01-12T14:44:39.412Z,68.27
2018-01-12T14:47:12.479Z,67.44
2018-01-12T14:49:45.259Z,67.32
2018-01-12T14:52:17.098Z,67.49
2018-01-12T14:54:52.623Z,68.36
2018-01-12T14:57:24.804Z,68.09
2018-01-12T14:59:57.212Z,69.81
2018-01-12T15:05:24.284Z,68.57
2018-01-12T15:07:58.024Z,67.27
2018-01-12T15:10:33.217Z,66.20
2018-01-12T15:13:14.363Z,67.36
2018-01-12T15:15:46.654Z,68.45
2018-01-12T15:18:19.606Z,68.10
2018-01-12T15:20:53.419Z,66.96
2018-01-12T15:23:27.818Z,66.99
2018-01-12T15:26:03.443Z,66.29
2018-01-12T15:28:35.440Z,66.51
2018-01-12T15:31:11.907Z,66.49
2018-01-12T15:33:44.848Z,67.55
2018-01-12T16:52:39.814Z,69.18
2018-01-12T16:55:11.778Z,68.49
2018-01-12T16:57:46.792Z,67.16
2018-01-12T17:00:19.686Z,66.91
2018-01-12T17:02:51.402Z,67.73
2018-01-12T17:05:24.549Z,67.64
2018-01-12T17:07:57.706Z,68.23
2018-01-12T17:10:30.099Z,68.79
2018-01-12T17:13:03.503Z,68.38
2018-01-12T17:15:34.907Z,68.16
2018-01-12T17:18:07.194Z,68.44
2018-01-12T17:20:39.087Z,67.61
2018-01-12T17:23:11.465Z,67.65
2018-01-12T17:25:43.016Z,67.78
2018-01-12T17:28:14.775Z,68.39
2018-01-12T17:30:49.530Z,68.91
2018-01-12T17:33:22.308Z,69.89
2018-01-12T17:35:55.086Z,69.39
2018-01-12T17:38:27.436Z,67.70
2018-01-12T17:40:59.473Z,69.12
2018-01-12T17:43:31.989Z,68.55
2018-01-12T17:46:06.861Z,68.31
2018-01-12T17:48:39.044Z,68.57
2018-01-12T17:51:10.631Z,68.95
2018-01-12T17:53:44.029Z,69.91
2018-01-12T17:56:16.465Z,69.95
2018-01-12T17:58:48.171Z,68.93
2018-01-12T18:01:23.893Z,68.36
2018-01-12T18:03:57.670Z,68.11
2018-01-12T18:06:29.237Z,69.17
2018-01-12T18:09:00.515Z,69.04
2018-01-12T18:11:32.108Z,68.15
2018-01-12T18:14:05.725Z,69.20
2018-01-12T18:16:38.632Z,69.74
2018-01-12T18:19:10.415Z,69.65
2018-01-12T18:21:42.694Z,69.12
2018-01-12T18:24:16.862Z,68.18
2018-01-12T18:26:50.634Z,68.14
2018-01-12T18:29:23.090Z,69.69
2018-01-12T18:31:56.162Z,69.07
2018-01-12T18:34:28.178Z,69.63
2018-01-12T18:37:02.288Z,70.15
2018-01-12T18:39:33.631Z,71.12
2018-01-12T18:42:07.404Z,70.80
2018-01-12T18:44:39.619Z,69.86
2018-01-12T18:47:11.256Z,69.75
2018-01-12T18:49:44.921Z,68.98
2018-01-12T18:52:17.332Z,68.51
2018-01-12T18:54:51.813Z,68.27
2018-01-12T18:57:23.890Z,68.01
2018-01-12T18:59:57.200Z,68.03
2018-01-12T19:02:29.462Z,69.38
2018-01-12T19:05:01.254Z,69.54
2018-01-12T19:10:18.163Z,70.69
2018-01-12T19:12:57.215Z,69.09
2018-01-12T19:15:30.289Z,69.08
2018-01-12T19:18:01.988Z,69.20
2018-01-12T19:20:33.890Z,70.85
2018-01-12T19:23:05.334Z,70.94
2018-01-12T19:25:36.477Z,70.32
2018-01-12T19:28:08.908Z,68.26
2018-01-12T19:30:41.222Z,68.45
2018-01-12T19:33:16.540Z,68.18
2018-01-12T19:35:48.310Z,68.66
2018-01-12T19:38:19.557Z,68.62
2018-01-12T19:40:50.890Z,68.69
2018-01-12T19:43:23.932Z,68.09
2018-01-12T19:45:59.353Z,67.77
2018-01-12T19:48:32.313Z,67.83
2018-01-12T19:51:04.022Z,68.60
2018-01-12T19:53:36.295Z,68.51
2018-01-12T19:56:10.176Z,67.65
2018-01-12T19:58:42.296Z,68.50
2018-01-12T20:03:47.590Z,68.44
2018-01-12T20:06:25.065Z,67.38
2018-01-12T20:15:29.575Z,67.50
2018-01-12T20:19:23.368Z,68.20
2018-01-12T20:22:44.840Z,67.79
2018-01-12T20:25:20.554Z,67.84
2018-01-12T20:27:53.808Z,69.49
2018-01-12T20:30:54.400Z,68.58
2018-01-12T20:40:01.510Z,67.77
2018-01-12T20:42:36.809Z,67.66
2018-01-12T20:45:10.613Z,68.84
2018-01-12T21:12:35.156Z,68.27
2018-01-12T21:15:33.401Z,68.92
2018-01-12T21:21:39.678Z,67.45
2018-01-12T21:24:11.908Z,66.44
2018-01-12T21:26:46.052Z,67.45
2018-01-12T21:29:20.584Z,67.23
2018-01-12T21:31:53.935Z,67.68
2018-01-12T21:34:26.659Z,68.31
2018-01-12T21:37:00.015Z,69.11
2018-01-12T21:39:32.737Z,69.27
2018-01-12T21:42:05.024Z,68.79
2018-01-12T21:44:37.737Z,69.22
2018-01-12T21:47:10.424Z,70.01
2018-01-12T21:49:51.242Z,70.64
2018-01-12T21:52:22.912Z,69.90
2018-01-12T21:54:55.855Z,69.86
2018-01-12T21:57:27.915Z,70.21
2018-01-12T22:00:30.511Z,70.13
2018-01-12T22:03:02.989Z,70.67
2018-01-12T22:05:42.606Z,72.93
2018-01-12T22:08:14.938Z,72.04
2018-01-12T22:10:50.164Z,72.05
2018-01-12T22:13:22.467Z,70.56
2018-01-12T22:15:55.490Z,70.58
2018-01-12T22:18:28.316Z,70.97
2018-01-12T22:21:01.073Z,70.95
2018-01-12T22:23:32.486Z,70.54
2018-01-12T22:26:03.871Z,71.44
2018-01-12T22:28:35.545Z,69.92
2018-01-12T22:31:07.742Z,69.91
2018-01-12T22:33:40.802Z,70.24
2018-01-12T22:36:14.613Z,70.07
2018-01-12T22:38:48.365Z,70.03
2018-01-12T22:41:21.609Z,70.10
2018-01-12T22:43:55.319Z,70.09
2018-01-12T22:46:26.467Z,71.22
2018-01-12T22:49:00.404Z,72.06
2018-01-12T22:51:32.603Z,72.79
2018-01-12T22:54:03.980Z,71.57
2018-01-12T22:56:36.760Z,73.14
2018-01-12T22:59:08.168Z,72.98
2018-01-12T23:01:41.288Z,72.15
2018-01-12T23:04:16.339Z,73.01
2018-01-12T23:06:48.980Z,72.11
2018-01-12T23:09:22.859Z,72.61
2018-01-12T23:11:59.023Z,72.22
2018-01-12T23:14:35.681Z,71.42
2018-01-12T23:17:11.318Z,72.29
2018-01-12T23:19:47.394Z,71.12
2018-01-12T23:22:20.837Z,71.58
2018-01-12T23:24:56.804Z,71.39
2018-01-12T23:27:28.665Z,71.78
2018-01-12T23:30:00.784Z,71.93
2018-01-12T23:32:32.082Z,72.87
2018-01-12T23:35:03.355Z,73.53
2018-01-12T23:37:35.112Z,72.31
2018-01-12T23:40:06.699Z,70.25
2018-01-12T23:42:38.806Z,71.22
2018-01-12T23:45:10.747Z,70.65
2018-01-12T23:47:41.932Z,71.07
2018-01-12T23:50:15.039Z,71.62
2018-01-12T23:52:47.100Z,71.68
2018-01-12T23:55:19.143Z,71.52
2018-01-12T23:57:52.538Z,71.79
